Portada
METAR-TAF:

METAR-TAF

Aeropuertos :

Seyresse

Dax, Francia

latitud: 43-41N, longitud: 001-04W, altitud: 32 m

Observación

El informe se hizo hace 29 minutos, a las 21:30 UTC
Viento 3 kt del este-sureste
Temperatura 16°C
Humedad 72%
Presión 1013 hPa
Visibilidad 10 km o más

METAR: LFBY 162130Z AUTO 11003KT 9999 // ////// 16/11 Q1013

Hora: 23:59 (21:59 UTC)

Pronóstico

El informe se hizo hace 13 horas y 59 minutos, a las 08:00 UTC
Pronóstico válido del 16 a las 09 UTC al 16 a las 18 UTC
Viento 5 kt del sureste
Visibilidad 10 km o más
sin nubes por debajo de 1500 m y sin presencia de cumulonimbus.

TAF: LFBY 160800Z 1609/1618 14005KT CAVOK

Observaciones y pronósticos meteorológicos de más de 4000 aeropuertos (mensajes METAR y TAF).

Los puntos amarillos y rojos representan las estaciones disponibles.

Ponga el ratón en el punto deseado para ver el nombre de la estación.

Haga clic para ver las observaciones y los pronósticos meteorológicos.

Para cambiar el mapa : haga clic en los botones verdes con una cruz de color negro para hacer un zoom, en el botón verde con un guión para alejar o en las flechas verdes para mapas adyacentes.


METAR-TAF: